Time;durP1;ratioP1;P1;durP2;ratioP2;P2;SDS_P1;SDS_P2;PMS_P1;PMS_P2;Temp;Humidity;BMP_temperature;BMP_pressure;BME280_temperature;BME280_humidity;BME280_pressure;Samples;Min_cycle;Max_cycle;Signal;HPM_P1;HPM_P2
2023/05/06 00:01:03;;;;;;;0.43;0.43;;;12.10;99.90;;;;;;6158676;23;20096;-80
2023/05/06 00:03:29;;;;;;;1.35;0.52;;;12.10;99.90;;;;;;6158262;23;20346;-83
2023/05/06 00:05:55;;;;;;;0.50;0.50;;;12.00;99.90;;;;;;6184901;23;20426;-80
2023/05/06 00:08:20;;;;;;;1.70;0.85;;;12.00;99.90;;;;;;6133801;23;20023;-80
2023/05/06 00:10:46;;;;;;;1.83;1.20;;;11.90;99.90;;;;;;6184543;23;20016;-80
2023/05/06 00:13:12;;;;;;;1.00;0.50;;;11.90;99.90;;;;;;6185022;23;20464;-80
2023/05/06 00:15:38;;;;;;;1.07;0.40;;;11.80;99.90;;;;;;6158164;23;20013;-80
2023/05/06 00:18:05;;;;;;;1.33;0.43;;;11.80;99.90;;;;;;6185110;23;20092;-80
2023/05/06 00:20:31;;;;;;;0.50;0.50;;;11.70;99.90;;;;;;6184884;23;20021;-82
2023/05/06 00:22:57;;;;;;;0.57;0.57;;;11.60;99.90;;;;;;6134152;23;20031;-80
2023/05/06 00:25:23;;;;;;;1.00;0.50;;;11.60;99.90;;;;;;6185020;23;20029;-80
2023/05/06 00:27:49;;;;;;;0.50;0.50;;;11.50;99.90;;;;;;6133894;23;20017;-80
2023/05/06 00:30:14;;;;;;;0.40;0.40;;;11.50;99.90;;;;;;6158424;23;20457;-80
2023/05/06 00:32:40;;;;;;;2.43;0.60;;;11.50;99.90;;;;;;6133763;23;20096;-80
2023/05/06 00:35:06;;;;;;;1.20;0.70;;;11.40;99.90;;;;;;6159041;23;20099;-80
2023/05/06 00:37:32;;;;;;;0.30;0.30;;;11.40;99.90;;;;;;6184974;23;20025;-80
2023/05/06 00:39:57;;;;;;;0.57;0.50;;;11.40;99.90;;;;;;6158272;23;20528;-80
2023/05/06 00:42:23;;;;;;;1.80;0.70;;;11.40;99.90;;;;;;6158723;23;20060;-80
2023/05/06 00:44:50;;;;;;;0.98;0.40;;;11.30;99.90;;;;;;6184064;23;20013;-80
2023/05/06 00:47:17;;;;;;;2.13;1.00;;;11.40;99.90;;;;;;6159168;23;20021;-80
2023/05/06 00:49:45;;;;;;;0.82;0.80;;;11.30;99.90;;;;;;6158131;23;20148;-80
2023/05/06 00:52:12;;;;;;;0.65;0.65;;;11.30;99.90;;;;;;6184858;23;20106;-80
2023/05/06 00:54:38;;;;;;;;;;;11.30;99.90;;;;;;6184990;23;20076;-81
2023/05/06 00:57:04;;;;;;;0.80;0.80;;;11.30;99.90;;;;;;6158352;23;19920;-79
2023/05/06 00:59:30;;;;;;;0.73;0.53;;;11.30;99.90;;;;;;6185322;23;20091;-79
2023/05/06 01:01:56;;;;;;;1.35;0.70;;;11.30;99.90;;;;;;6133628;23;20096;-79
2023/05/06 01:04:23;;;;;;;0.88;0.52;;;11.30;99.90;;;;;;6184949;23;20017;-79
2023/05/06 01:06:58;;;;;;;0.60;0.60;;;11.20;99.90;;;;;;6184407;23;20024;-78
2023/05/06 01:09:30;;;;;;;1.70;0.40;;;11.20;99.90;;;;;;6184898;23;20017;-80
2023/05/06 01:12:01;;;;;;;0.45;0.40;;;11.20;99.90;;;;;;6133663;23;20075;-80
2023/05/06 01:14:30;;;;;;;0.52;0.40;;;11.10;99.90;;;;;;6134084;23;20063;-80
2023/05/06 01:17:02;;;;;;;1.42;0.70;;;11.10;99.90;;;;;;6135216;23;20036;-80
2023/05/06 01:19:37;;;;;;;0.47;0.45;;;11.10;99.90;;;;;;6186297;23;20021;-80
2023/05/06 01:22:06;;;;;;;0.98;0.77;;;11.00;99.90;;;;;;6159779;23;20442;-80
2023/05/06 01:24:42;;;;;;;0.45;0.40;;;11.00;99.90;;;;;;6186435;23;20032;-80
2023/05/06 01:27:09;;;;;;;0.37;0.20;;;11.10;99.90;;;;;;6135882;23;20025;-80
2023/05/06 01:29:37;;;;;;;0.38;0.25;;;11.10;99.90;;;;;;6186571;23;20257;-80
2023/05/06 01:32:35;;;;;;;1.40;0.50;;;11.00;99.90;;;;;;6135014;23;20021;-80
2023/05/06 01:35:29;;;;;;;0.40;0.40;;;11.00;99.90;;;;;;6159489;23;20044;-80
2023/05/06 01:38:19;;;;;;;0.88;0.60;;;11.10;99.90;;;;;;6159755;23;20013;-80
2023/05/06 01:40:53;;;;;;;0.40;0.40;;;11.10;99.90;;;;;;6134764;23;20021;-81
2023/05/06 01:43:19;;;;;;;0.98;0.55;;;11.10;99.90;;;;;;6186492;23;20023;-80
2023/05/06 01:45:52;;;;;;;1.17;0.55;;;11.10;99.90;;;;;;6185763;23;20013;-81
2023/05/06 01:48:23;;;;;;;0.70;0.57;;;11.10;99.90;;;;;;6186492;23;20028;-80
2023/05/06 01:50:49;;;;;;;1.73;0.60;;;11.10;99.90;;;;;;6159506;23;20017;-80
2023/05/06 01:53:15;;;;;;;0.88;0.50;;;11.10;99.90;;;;;;6160203;23;20017;-80
2023/05/06 01:55:40;;;;;;;0.53;0.40;;;11.10;99.90;;;;;;6134830;23;20009;-80
2023/05/06 01:58:06;;;;;;;0.40;0.40;;;11.10;99.90;;;;;;6134990;23;20017;-80
2023/05/06 02:00:32;;;;;;;0.57;0.57;;;11.00;99.90;;;;;;6185954;23;20025;-80
2023/05/06 02:02:58;;;;;;;1.63;0.65;;;11.00;99.90;;;;;;6135038;23;20019;-80
2023/05/06 02:05:24;;;;;;;1.13;0.43;;;11.00;99.90;;;;;;6135439;23;20017;-80
2023/05/06 02:07:50;;;;;;;0.70;0.70;;;10.90;99.90;;;;;;6185434;23;20483;-80
2023/05/06 02:10:15;;;;;;;0.97;0.50;;;10.90;99.90;;;;;;6135747;23;20068;-80
2023/05/06 02:12:41;;;;;;;1.33;0.50;;;10.80;99.90;;;;;;6159793;23;20029;-80
2023/05/06 02:15:08;;;;;;;0.80;0.53;;;10.80;99.90;;;;;;6185204;23;20650;-80
2023/05/06 02:17:35;;;;;;;0.75;0.60;;;10.70;99.90;;;;;;6160015;23;20021;-80
2023/05/06 02:20:00;;;;;;;0.70;0.65;;;10.60;99.90;;;;;;6134616;23;20469;-80
2023/05/06 02:22:26;;;;;;;0.87;0.50;;;10.60;99.90;;;;;;6185950;23;20021;-80
2023/05/06 02:24:52;;;;;;;1.27;0.50;;;10.60;99.90;;;;;;6159055;23;20013;-80
2023/05/06 02:27:17;;;;;;;1.03;0.90;;;10.50;99.90;;;;;;6159474;23;20075;-80
2023/05/06 02:29:43;;;;;;;0.60;0.57;;;10.50;99.90;;;;;;6185699;23;20021;-80
2023/05/06 02:32:09;;;;;;;1.17;0.60;;;10.50;99.90;;;;;;6159275;23;20021;-80
2023/05/06 02:34:35;;;;;;;0.87;0.53;;;10.40;99.90;;;;;;6185869;23;20017;-80
2023/05/06 02:37:00;;;;;;;1.80;0.43;;;10.40;99.90;;;;;;6159290;23;20017;-80
2023/05/06 02:39:26;;;;;;;0.83;0.47;;;10.30;99.90;;;;;;6185927;23;20454;-80
2023/05/06 02:41:52;;;;;;;0.33;0.30;;;10.30;99.90;;;;;;6158821;23;20353;-82
2023/05/06 02:44:17;;;;;;;0.77;0.57;;;10.30;99.90;;;;;;6159224;23;20028;-80
2023/05/06 02:46:43;;;;;;;0.83;0.50;;;10.30;99.90;;;;;;6185623;23;20025;-80
2023/05/06 02:49:09;;;;;;;1.17;0.53;;;10.20;99.90;;;;;;6185284;23;20024;-80
2023/05/06 02:51:35;;;;;;;2.03;0.87;;;10.20;99.90;;;;;;6159442;23;20319;-80
2023/05/06 02:54:01;;;;;;;2.40;1.15;;;10.20;99.90;;;;;;6185263;23;20024;-80
2023/05/06 02:56:26;;;;;;;2.43;0.80;;;10.20;99.90;;;;;;6158830;23;20021;-80
2023/05/06 02:58:52;;;;;;;1.53;1.10;;;10.20;99.90;;;;;;6159642;23;20024;-80
2023/05/06 03:01:18;;;;;;;2.60;0.60;;;10.20;99.90;;;;;;6158969;23;20021;-80
2023/05/06 03:03:44;;;;;;;1.20;0.80;;;10.10;99.90;;;;;;6159333;23;20331;-80
2023/05/06 03:06:10;;;;;;;1.38;0.77;;;10.10;99.90;;;;;;6158693;23;20460;-80
2023/05/06 03:08:36;;;;;;;0.77;0.70;;;10.10;99.90;;;;;;6104880;23;20085;-80
2023/05/06 03:11:01;;;;;;;2.27;1.23;;;10.10;99.90;;;;;;6128702;23;20029;-80
2023/05/06 03:13:27;;;;;;;0.50;0.50;;;10.10;99.90;;;;;;6129883;23;20378;-80
2023/05/06 03:15:53;;;;;;;0.97;0.70;;;10.10;99.90;;;;;;6155815;23;20064;-80
2023/05/06 03:18:19;;;;;;;1.13;0.83;;;10.00;99.90;;;;;;6153810;23;20017;-80
2023/05/06 03:20:47;;;;;;;1.45;0.45;;;10.00;99.90;;;;;;6154265;23;20018;-80
2023/05/06 03:23:13;;;;;;;0.40;0.40;;;9.90;99.90;;;;;;6154843;23;20022;-80
2023/05/06 03:25:38;;;;;;;0.40;0.40;;;9.90;99.90;;;;;;6155565;23;20040;-80
2023/05/06 03:28:04;;;;;;;0.70;0.50;;;9.90;99.90;;;;;;6153836;23;20056;-80
2023/05/06 03:30:30;;;;;;;0.80;0.30;;;9.90;99.90;;;;;;6154297;23;20076;-80
2023/05/06 03:32:59;;;;;;;1.20;0.80;;;9.90;99.90;;;;;;6154146;23;20023;-80
2023/05/06 03:35:25;;;;;;;1.10;0.47;;;9.80;99.90;;;;;;6155587;23;20013;-80
2023/05/06 03:37:50;;;;;;;1.17;0.57;;;9.70;99.90;;;;;;6129222;23;20024;-80
2023/05/06 03:40:16;;;;;;;0.57;0.43;;;9.70;99.90;;;;;;6154883;23;20021;-80
2023/05/06 03:42:43;;;;;;;0.53;0.53;;;9.70;99.90;;;;;;6155552;23;20017;-80
2023/05/06 03:45:09;;;;;;;0.57;0.47;;;9.70;99.90;;;;;;6155024;23;20088;-80
2023/05/06 03:47:34;;;;;;;1.00;0.93;;;9.60;99.90;;;;;;6129524;23;20063;-80
2023/05/06 03:50:00;;;;;;;1.80;1.00;;;9.60;99.90;;;;;;6153683;23;20020;-82
2023/05/06 03:52:26;;;;;;;0.73;0.53;;;9.60;99.90;;;;;;6153664;23;20021;-80
2023/05/06 03:54:52;;;;;;;2.33;0.70;;;9.60;99.90;;;;;;6155261;23;20024;-80
2023/05/06 03:57:17;;;;;;;2.07;1.07;;;9.60;99.90;;;;;;6155164;23;20028;-80
2023/05/06 03:59:43;;;;;;;2.17;1.40;;;9.60;99.90;;;;;;6154238;23;20057;-80
2023/05/06 04:02:09;;;;;;;1.53;1.07;;;9.60;99.90;;;;;;6154972;23;20017;-80
2023/05/06 04:04:34;;;;;;;1.13;0.57;;;9.50;99.90;;;;;;6153863;23;20022;-80
2023/05/06 04:07:00;;;;;;;1.57;0.67;;;9.60;99.90;;;;;;6129063;23;20017;-80
2023/05/06 04:09:26;;;;;;;1.47;1.23;;;9.60;99.90;;;;;;6153266;23;20029;-80
2023/05/06 04:11:52;;;;;;;1.87;1.00;;;9.70;99.90;;;;;;6155393;23;20526;-80
2023/05/06 04:14:17;;;;;;;1.20;0.70;;;9.70;99.90;;;;;;6153410;23;20381;-80
2023/05/06 04:16:43;;;;;;;1.27;1.03;;;9.60;99.90;;;;;;6153883;23;20075;-80
2023/05/06 04:19:09;;;;;;;1.27;0.83;;;9.60;99.90;;;;;;6153426;23;20458;-80
2023/05/06 04:21:34;;;;;;;1.07;0.83;;;9.60;99.90;;;;;;6153536;23;20017;-80
2023/05/06 04:24:01;;;;;;;0.50;0.50;;;9.50;99.90;;;;;;6154005;23;20021;-80
2023/05/06 04:26:27;;;;;;;0.40;0.40;;;9.50;99.90;;;;;;6128648;23;20052;-80
2023/05/06 04:28:52;;;;;;;1.10;1.03;;;9.50;99.90;;;;;;6129330;23;20029;-79
2023/05/06 04:31:18;;;;;;;0.53;0.43;;;9.40;99.90;;;;;;6128708;23;20346;-80
2023/05/06 04:33:44;;;;;;;0.83;0.70;;;9.40;99.90;;;;;;6153437;23;20060;-80
2023/05/06 04:36:10;;;;;;;1.07;0.67;;;9.40;99.90;;;;;;6153470;23;20025;-81
2023/05/06 04:38:36;;;;;;;0.47;0.43;;;9.40;99.90;;;;;;6155239;23;20346;-80
2023/05/06 04:41:04;;;;;;;0.80;0.43;;;9.40;99.90;;;;;;6153626;23;20022;-79
2023/05/06 04:43:30;;;;;;;1.00;0.70;;;9.40;99.90;;;;;;6154716;23;20021;-80
2023/05/06 04:45:56;;;;;;;1.52;0.65;;;9.40;99.90;;;;;;6153267;23;20045;-80
2023/05/06 04:48:22;;;;;;;0.80;0.50;;;9.40;99.90;;;;;;6153339;23;20021;-80
2023/05/06 04:50:48;;;;;;;1.13;0.95;;;9.50;99.90;;;;;;6154734;23;20320;-80
2023/05/06 04:53:15;;;;;;;1.48;0.80;;;9.50;99.90;;;;;;6155175;23;20083;-80
2023/05/06 04:55:40;;;;;;;0.52;0.52;;;9.60;99.90;;;;;;6156479;23;20463;-80
2023/05/06 04:58:06;;;;;;;1.30;0.73;;;9.70;99.90;;;;;;6157088;23;20021;-80
2023/05/06 05:00:32;;;;;;;1.70;0.50;;;10.00;99.90;;;;;;6154666;23;20101;-80
2023/05/06 05:02:58;;;;;;;0.52;0.45;;;10.40;99.90;;;;;;6157009;23;20056;-80
2023/05/06 05:05:25;;;;;;;1.47;0.70;;;10.70;99.90;;;;;;6155083;23;20014;-80
2023/05/06 05:07:51;;;;;;;0.63;0.38;;;11.00;99.90;;;;;;6155246;23;20084;-80
2023/05/06 05:10:17;;;;;;;0.67;0.67;;;11.30;99.90;;;;;;6155161;23;20458;-80
2023/05/06 05:12:42;;;;;;;2.10;0.97;;;11.60;99.90;;;;;;6155540;23;20021;-80
2023/05/06 05:15:08;;;;;;;0.73;0.73;;;11.90;99.90;;;;;;6155200;23;20184;-80
2023/05/06 05:17:34;;;;;;;1.80;1.20;;;12.30;99.90;;;;;;6156505;23;20062;-80
2023/05/06 05:20:00;;;;;;;0.90;0.80;;;12.60;99.90;;;;;;6155423;23;20455;-80
2023/05/06 05:22:26;;;;;;;1.85;0.95;;;12.80;99.90;;;;;;6156413;23;20052;-80
2023/05/06 05:24:51;;;;;;;1.13;0.63;;;13.00;99.90;;;;;;6155613;23;20017;-80
2023/05/06 05:27:17;;;;;;;1.30;0.97;;;13.00;99.90;;;;;;6130217;23;20022;-81
2023/05/06 05:29:43;;;;;;;1.57;1.33;;;13.00;99.90;;;;;;6155323;23;20017;-80
2023/05/06 05:32:08;;;;;;;1.50;0.70;;;12.70;99.90;;;;;;6157016;23;20449;-80
2023/05/06 05:34:34;;;;;;;1.23;1.13;;;12.40;99.90;;;;;;6130259;23;20105;-80
2023/05/06 05:37:03;;;;;;;1.17;1.08;;;12.20;99.90;;;;;;6154912;23;20350;-79
2023/05/06 05:39:28;;;;;;;0.50;0.50;;;12.10;99.90;;;;;;6156429;23;20028;-82
2023/05/06 05:41:54;;;;;;;0.47;0.47;;;11.90;99.90;;;;;;6156290;23;20403;-83
2023/05/06 05:44:20;;;;;;;1.10;0.80;;;11.80;99.90;;;;;;6154712;23;20029;-83
2023/05/06 05:46:45;;;;;;;1.65;1.23;;;11.80;99.90;;;;;;6155104;23;20454;-82
2023/05/06 05:49:11;;;;;;;0.83;0.83;;;11.70;99.90;;;;;;6155329;23;20037;-81
2023/05/06 05:51:37;;;;;;;3.53;1.33;;;11.70;99.90;;;;;;6130459;23;20036;-81
2023/05/06 05:54:02;;;;;;;1.27;0.77;;;11.60;99.90;;;;;;6154597;23;20020;-82
2023/05/06 05:56:28;;;;;;;1.23;1.00;;;11.60;99.90;;;;;;6154392;23;20065;-85
2023/05/06 05:58:54;;;;;;;1.97;0.70;;;11.50;99.90;;;;;;6130830;23;20022;-80
2023/05/06 06:01:20;;;;;;;1.60;1.27;;;11.50;99.90;;;;;;6155776;23;20017;-84
2023/05/06 06:03:46;;;;;;;0.95;0.70;;;11.50;99.90;;;;;;6156494;23;20024;-82
2023/05/06 06:06:11;;;;;;;1.38;0.82;;;11.50;99.90;;;;;;6155224;23;20399;-82
2023/05/06 06:08:37;;;;;;;1.47;1.03;;;11.50;99.90;;;;;;6170533;23;20021;-82
2023/05/06 06:11:04;;;;;;;2.07;1.13;;;11.50;99.90;;;;;;6185993;23;20063;-83
2023/05/06 06:13:30;;;;;;;1.92;0.85;;;11.50;99.90;;;;;;6184632;23;20013;-85
2023/05/06 06:15:56;;;;;;;1.52;0.90;;;11.60;99.90;;;;;;6159782;23;20017;-82
2023/05/06 06:18:23;;;;;;;1.38;0.82;;;11.80;99.90;;;;;;6185542;23;20021;-83
2023/05/06 06:20:48;;;;;;;1.88;0.82;;;12.00;99.90;;;;;;6185983;23;20021;-85
2023/05/06 06:23:14;;;;;;;2.30;1.30;;;12.30;99.90;;;;;;6185928;23;20025;-82
2023/05/06 06:25:40;;;;;;;3.23;1.37;;;12.80;99.90;;;;;;6134735;23;20104;-84
2023/05/06 06:28:05;;;;;;;1.27;1.08;;;13.20;99.90;;;;;;6159260;23;20017;-85
2023/05/06 06:30:31;;;;;;;1.60;0.90;;;13.40;99.90;;;;;;6134625;23;20025;-84
2023/05/06 06:33:00;;;;;;;3.65;1.80;;;13.50;99.90;;;;;;6159802;23;20111;-83
2023/05/06 06:35:26;;;;;;;1.35;1.25;;;13.50;99.90;;;;;;6184803;23;20457;-83
2023/05/06 06:37:53;;;;;;;2.53;1.13;;;13.60;99.90;;;;;;6159567;23;20025;-82
2023/05/06 06:40:18;;;;;;;;;;;13.70;99.90;;;;;;6160093;23;20017;-82
2023/05/06 06:42:45;;;;;;;1.45;0.85;;;13.80;99.90;;;;;;6159071;23;19922;-82
2023/05/06 06:45:13;;;;;;;2.40;1.20;;;13.80;99.90;;;;;;6185626;23;20040;-82
2023/05/06 06:47:39;;;;;;;3.20;1.10;;;13.80;99.90;;;;;;6158904;23;20027;-83
2023/05/06 06:50:05;;;;;;;;;;;13.80;99.90;;;;;;6159973;23;20488;-80
2023/05/06 06:52:31;;;;;;;2.08;1.42;;;13.80;99.90;;;;;;6158766;23;19916;-82
2023/05/06 06:54:57;;;;;;;1.75;0.80;;;13.80;99.90;;;;;;6162771;23;20013;-83
2023/05/06 06:57:23;;;;;;;0.80;0.80;;;13.70;99.90;;;;;;6134971;23;20104;-82
2023/05/06 06:59:51;;;;;;;3.47;1.67;;;13.80;99.90;;;;;;6158858;23;20024;-82
2023/05/06 07:02:16;;;;;;;2.53;1.58;;;13.70;99.90;;;;;;6159287;23;20021;-82
2023/05/06 07:04:42;;;;;;;3.80;2.03;;;13.70;99.90;;;;;;6136677;23;20029;-83
2023/05/06 07:07:08;;;;;;;2.10;1.13;;;13.60;99.90;;;;;;6186238;23;20346;-84
2023/05/06 07:09:34;;;;;;;1.93;1.00;;;13.60;99.90;;;;;;6184534;23;20736;-84
2023/05/06 07:12:00;;;;;;;1.03;0.90;;;13.60;99.90;;;;;;6159774;23;20025;-84
2023/05/06 07:14:26;;;;;;;;;;;13.70;99.90;;;;;;6159361;23;20036;-83
2023/05/06 07:16:52;;;;;;;2.22;0.70;;;13.70;99.90;;;;;;6158081;23;20332;-83
2023/05/06 07:19:17;;;;;;;3.05;1.05;;;13.90;99.90;;;;;;6158688;23;20021;-83
2023/05/06 07:21:43;;;;;;;1.47;0.97;;;14.20;99.90;;;;;;6184997;23;20035;-83
2023/05/06 07:24:09;;;;;;;2.13;0.90;;;14.40;99.90;;;;;;6185721;23;20021;-83
2023/05/06 07:26:35;;;;;;;1.23;0.77;;;14.40;99.90;;;;;;6184832;23;20013;-83
2023/05/06 07:29:03;;;;;;;2.17;1.20;;;14.30;99.90;;;;;;6185519;23;20013;-83
2023/05/06 07:31:30;;;;;;;2.10;1.13;;;14.30;99.90;;;;;;6110643;23;20052;-83
2023/05/06 07:33:57;;;;;;;1.92;1.38;;;14.30;99.90;;;;;;6184759;23;20017;-83
2023/05/06 07:36:23;;;;;;;1.58;0.90;;;14.30;99.90;;;;;;6158905;23;20507;-83
2023/05/06 07:38:49;;;;;;;0.85;0.73;;;14.40;99.90;;;;;;6158907;23;20044;-83
2023/05/06 07:41:15;;;;;;;1.27;0.85;;;14.70;99.90;;;;;;6159059;23;20460;-83
2023/05/06 07:43:41;;;;;;;2.20;1.08;;;15.10;99.90;;;;;;6158602;23;20084;-81
2023/05/06 07:46:07;;;;;;;2.13;1.38;;;15.40;99.90;;;;;;6158881;23;20047;-80
2023/05/06 07:48:33;;;;;;;1.27;1.15;;;15.60;99.90;;;;;;6158995;23;20016;-78
2023/05/06 07:50:59;;;;;;;1.95;0.82;;;15.50;99.90;;;;;;6158438;23;20028;-78
2023/05/06 07:53:25;;;;;;;1.15;0.65;;;15.50;99.90;;;;;;6185327;23;20013;-78
2023/05/06 07:56:00;;;;;;;1.10;1.00;;;15.70;99.90;;;;;;6183285;23;20025;-81
2023/05/06 07:58:27;;;;;;;1.00;0.88;;;16.10;99.90;;;;;;6185452;23;20017;-82
2023/05/06 08:00:53;;;;;;;2.88;1.10;;;16.40;99.90;;;;;;6184670;23;20021;-81
2023/05/06 08:03:18;;;;;;;0.95;0.77;;;16.80;99.90;;;;;;6134336;23;20063;-80
2023/05/06 08:05:44;;;;;;;2.33;1.00;;;17.10;99.90;;;;;;6158015;23;20021;-82
2023/05/06 08:08:10;;;;;;;2.00;0.88;;;17.40;99.90;;;;;;6185083;23;20017;-82
2023/05/06 08:10:35;;;;;;;0.82;0.80;;;17.60;99.90;;;;;;6162309;23;20029;-82
2023/05/06 08:13:02;;;;;;;0.90;0.63;;;17.70;99.90;;;;;;6158581;23;20028;-80
2023/05/06 08:15:27;;;;;;;;;;;18.00;99.90;;;;;;6185664;23;20013;-81
2023/05/06 08:17:54;;;;;;;0.63;0.63;;;18.10;99.90;;;;;;6133882;23;20364;-81
2023/05/06 08:20:20;;;;;;;1.85;1.25;;;18.20;99.90;;;;;;6159254;23;20016;-81
2023/05/06 08:22:46;;;;;;;1.10;0.63;;;18.30;99.90;;;;;;6158439;23;20021;-81
2023/05/06 08:25:11;;;;;;;1.75;0.98;;;18.40;99.90;;;;;;6110628;23;20013;-81
2023/05/06 08:27:37;;;;;;;0.85;0.75;;;18.60;99.90;;;;;;6160813;23;20450;-81
2023/05/06 08:30:03;;;;;;;;;;;18.70;99.90;;;;;;6187214;23;20027;-81
2023/05/06 08:32:28;;;;;;;0.90;0.85;;;18.80;99.90;;;;;;6160823;23;19916;-81
2023/05/06 08:34:54;;;;;;;;;;;19.10;99.90;;;;;;6136188;23;20140;-80
2023/05/06 08:37:20;;;;;;;1.08;0.73;;;19.20;99.90;;;;;;6160803;23;19916;-80
2023/05/06 08:39:46;;;;;;;;;;;19.40;99.90;;;;;;6187220;23;20323;-79
2023/05/06 08:42:11;;;;;;;0.95;0.57;;;19.50;99.90;;;;;;6160888;23;20002;-79
2023/05/06 08:44:37;;;;;;;;;;;19.60;99.90;;;;;;6136310;23;20028;-79
2023/05/06 08:47:03;;;;;;;1.00;0.82;;;19.80;99.90;;;;;;6160408;23;19917;-80
2023/05/06 08:49:29;;;;;;;0.73;0.73;;;19.90;99.90;;;;;;6186730;23;20445;-79
2023/05/06 08:51:55;;;;;;;;;;;19.90;99.90;;;;;;6187133;23;20047;-79
2023/05/06 08:54:24;;;;;;;0.73;0.70;;;19.90;99.90;;;;;;6160782;23;19970;-79
2023/05/06 08:56:56;;;;;;;0.80;0.77;;;20.00;99.90;;;;;;6186629;23;20013;-79
2023/05/06 08:59:29;;;;;;;2.38;0.65;;;20.00;99.90;;;;;;6186735;23;20034;-79
2023/05/06 09:01:54;;;;;;;1.08;0.70;;;19.90;99.90;;;;;;6160219;23;20021;-79
2023/05/06 09:04:20;;;;;;;;;;;19.90;99.90;;;;;;6136615;23;20096;-79
2023/05/06 09:06:46;;;;;;;1.15;0.88;;;19.90;99.90;;;;;;6186434;23;19943;-80
2023/05/06 09:09:13;;;;;;;;;;;20.10;99.90;;;;;;6161045;23;20025;-79
2023/05/06 09:11:40;;;;;;;1.15;1.02;;;20.10;99.90;;;;;;6186602;23;20329;-79
2023/05/06 09:14:11;;;;;;;0.80;0.47;;;20.40;99.90;;;;;;6160107;23;20265;-79
2023/05/06 09:16:38;;;;;;;1.67;0.90;;;20.50;99.90;;;;;;6187064;23;20013;-79
2023/05/06 09:19:05;;;;;;;1.42;0.77;;;20.70;99.90;;;;;;6160163;23;20025;-79
2023/05/06 09:21:36;;;;;;;1.75;0.93;;;20.80;99.90;;;;;;6186839;23;20341;-79
2023/05/06 09:24:04;;;;;;;1.95;1.20;;;21.00;99.90;;;;;;6185965;23;20473;-79
2023/05/06 09:26:30;;;;;;;2.30;1.20;;;21.10;99.90;;;;;;6160612;23;20353;-79
2023/05/06 09:28:58;;;;;;;1.45;0.80;;;21.00;99.90;;;;;;6160066;23;20017;-79
2023/05/06 09:31:25;;;;;;;0.43;0.43;;;21.00;99.90;;;;;;6186660;23;20021;-79
2023/05/06 09:33:56;;;;;;;1.02;0.95;;;20.80;99.90;;;;;;6160015;23;20017;-79
2023/05/06 09:36:23;;;;;;;1.33;1.08;;;20.80;99.90;;;;;;6186614;23;20075;-79
2023/05/06 09:38:49;;;;;;;2.08;0.88;;;20.90;99.90;;;;;;6135320;23;20017;-81
2023/05/06 09:41:19;;;;;;;0.55;0.55;;;21.10;99.90;;;;;;6160385;23;20024;-79
2023/05/06 09:43:47;;;;;;;0.90;0.57;;;21.20;99.90;;;;;;6186699;23;20377;-79
2023/05/06 09:46:17;;;;;;;0.70;0.57;;;21.20;99.90;;;;;;6159777;23;20021;-79
2023/05/06 09:48:45;;;;;;;1.15;0.80;;;21.20;99.90;;;;;;6161110;23;20021;-79
2023/05/06 09:51:11;;;;;;;1.30;0.70;;;21.00;99.90;;;;;;6186278;23;20334;-79
2023/05/06 09:53:37;;;;;;;1.10;0.57;;;21.00;99.90;;;;;;6186539;23;20075;-79
2023/05/06 09:56:06;;;;;;;;;;;21.10;99.90;;;;;;6159873;23;20464;-79
2023/05/06 09:58:34;;;;;;;1.65;0.95;;;21.00;99.90;;;;;;6160089;23;20292;-79
2023/05/06 10:01:02;;;;;;;1.20;0.60;;;21.00;99.90;;;;;;6159800;23;20025;-79
2023/05/06 10:03:29;;;;;;;1.10;0.77;;;21.10;99.90;;;;;;6186717;23;20084;-79
2023/05/06 10:05:58;;;;;;;1.50;1.10;;;21.10;99.90;;;;;;6135089;23;20021;-80
2023/05/06 10:08:24;;;;;;;1.52;0.80;;;20.90;99.90;;;;;;6185887;23;20021;-80
2023/05/06 10:10:50;;;;;;;;;;;20.70;99.90;;;;;;6186832;23;20031;-80
2023/05/06 10:13:16;;;;;;;0.40;0.40;;;20.40;99.90;;;;;;6159596;23;19916;-80
2023/05/06 10:15:46;;;;;;;1.83;0.77;;;20.10;99.90;;;;;;6159789;23;20025;-80
2023/05/06 10:18:15;;;;;;;0.68;0.55;;;19.80;99.90;;;;;;6185837;23;20025;-80
2023/05/06 10:20:43;;;;;;;1.08;0.60;;;19.60;99.90;;;;;;6186120;23;20095;-80
2023/05/06 10:23:26;;;;;;;2.13;1.33;;;19.50;99.90;;;;;;6159874;23;20048;-80
2023/05/06 10:25:55;;;;;;;0.93;0.60;;;19.40;99.90;;;;;;6159920;23;20025;-79
2023/05/06 10:28:22;;;;;;;0.82;0.73;;;19.30;99.90;;;;;;6159971;23;20013;-79
2023/05/06 10:30:49;;;;;;;;;;;19.30;99.90;;;;;;6186745;23;20021;-79
2023/05/06 10:33:15;;;;;;;0.80;0.80;;;19.20;99.90;;;;;;6185795;23;19916;-80
2023/05/06 10:35:50;;;;;;;1.92;1.05;;;19.30;99.90;;;;;;6159654;23;20129;-80
2023/05/06 10:38:33;;;;;;;1.95;1.00;;;19.50;99.90;;;;;;6159283;23;20393;-80
2023/05/06 10:41:00;;;;;;;1.35;0.60;;;19.70;99.90;;;;;;6159477;23;20024;-80
2023/05/06 10:43:33;;;;;;;1.42;0.93;;;20.00;99.90;;;;;;6159670;23;20084;-80
2023/05/06 10:46:07;;;;;;;1.75;0.98;;;20.30;99.90;;;;;;6158867;23;20342;-81
2023/05/06 10:48:54;;;;;;;1.33;1.23;;;20.60;99.90;;;;;;6159765;23;20048;-80
2023/05/06 10:51:24;;;;;;;2.20;1.23;;;21.00;99.90;;;;;;6164765;23;20052;-79
2023/05/06 10:54:01;;;;;;;1.08;0.95;;;21.20;99.90;;;;;;6186143;23;20021;-80
2023/05/06 10:56:31;;;;;;;1.63;1.35;;;21.40;99.90;;;;;;6159602;23;20025;-80
2023/05/06 10:59:00;;;;;;;1.40;1.30;;;21.50;99.90;;;;;;6159649;23;20048;-80
2023/05/06 11:01:26;;;;;;;2.00;1.20;;;21.70;99.90;;;;;;6159511;23;20024;-80
2023/05/06 11:03:53;;;;;;;3.15;1.70;;;21.90;99.90;;;;;;6159910;23;20113;-79
2023/05/06 11:06:34;;;;;;;1.75;1.30;;;21.70;99.90;;;;;;6134171;23;20400;-80
2023/05/06 11:09:00;;;;;;;2.40;1.55;;;21.30;99.90;;;;;;6159184;23;20075;-80
2023/05/06 11:11:46;;;;;;;;;;;20.80;99.90;;;;;;6159562;23;20013;-80
2023/05/06 11:14:12;;;;;;;1.52;1.40;;;20.40;99.90;;;;;;6185330;23;19916;-80
2023/05/06 11:16:49;;;;;;;1.77;1.02;;;20.10;99.90;;;;;;6159414;23;20019;-79
2023/05/06 11:19:26;;;;;;;2.45;1.63;;;19.80;99.90;;;;;;6185362;23;20017;-80
2023/05/06 11:21:53;;;;;;;2.40;1.50;;;19.60;99.90;;;;;;6185686;23;20021;-80
2023/05/06 11:24:42;;;;;;;2.10;1.25;;;19.50;99.90;;;;;;6159211;23;20021;-80
2023/05/06 11:27:09;;;;;;;1.38;1.27;;;19.30;99.90;;;;;;6143336;23;20031;-80
2023/05/06 11:29:36;;;;;;;2.90;1.73;;;19.20;99.90;;;;;;6185567;23;20021;-80
2023/05/06 11:32:04;;;;;;;2.08;1.42;;;19.00;99.90;;;;;;6159311;23;20024;-80
2023/05/06 11:34:31;;;;;;;1.70;1.13;;;18.90;99.90;;;;;;6159090;23;20023;-80
2023/05/06 11:37:08;;;;;;;1.95;1.20;;;18.90;99.90;;;;;;6159321;23;20052;-80
2023/05/06 11:39:35;;;;;;;2.15;1.40;;;18.90;99.90;;;;;;6159682;23;20075;-80
2023/05/06 11:42:05;;;;;;;1.65;1.27;;;18.80;99.90;;;;;;6159239;23;20024;-80
2023/05/06 11:44:33;;;;;;;2.38;1.20;;;18.80;99.90;;;;;;6159047;23;20389;-80
2023/05/06 11:47:03;;;;;;;1.95;1.60;;;18.80;99.90;;;;;;6185494;23;20075;-79
2023/05/06 11:49:29;;;;;;;1.63;1.40;;;18.80;99.90;;;;;;6185078;23;20028;-80
2023/05/06 11:51:58;;;;;;;1.63;1.33;;;18.70;99.90;;;;;;6183968;23;20080;-80
2023/05/06 11:54:32;;;;;;;2.35;1.60;;;18.70;99.90;;;;;;6158681;23;20019;-80
2023/05/06 11:56:58;;;;;;;2.60;2.10;;;18.70;99.90;;;;;;6185594;23;20079;-80
2023/05/06 11:59:33;;;;;;;1.67;1.08;;;18.80;99.90;;;;;;6158344;23;20088;-80
2023/05/06 12:02:01;;;;;;;1.48;1.17;;;19.00;99.90;;;;;;6159233;23;20021;-80
2023/05/06 12:04:35;;;;;;;2.00;1.10;;;19.30;99.90;;;;;;6158522;23;20017;-80
2023/05/06 12:07:03;;;;;;;2.25;1.10;;;19.70;99.90;;;;;;6185348;23;20013;-80
2023/05/06 12:09:29;;;;;;;1.20;0.98;;;20.00;99.90;;;;;;6184446;23;20076;-80
2023/05/06 12:11:55;;;;;;;1.35;1.25;;;20.40;99.90;;;;;;6184776;23;20516;-80
2023/05/06 12:14:21;;;;;;;1.98;1.20;;;20.70;99.90;;;;;;6134049;23;20017;-80
2023/05/06 12:16:47;;;;;;;0.80;0.77;;;21.10;99.90;;;;;;6159014;23;20021;-80
2023/05/06 12:19:16;;;;;;;1.10;1.00;;;21.50;99.90;;;;;;6158526;23;20044;-80
2023/05/06 12:21:42;;;;;;;1.02;0.90;;;21.70;99.90;;;;;;6159100;23;20320;-80
2023/05/06 12:24:08;;;;;;;0.50;0.47;;;21.60;99.90;;;;;;6185348;23;20027;-80
2023/05/06 12:26:47;;;;;;;1.33;0.80;;;21.50;99.90;;;;;;6184770;23;20330;-80
2023/05/06 12:29:16;;;;;;;1.60;0.88;;;21.50;99.90;;;;;;6158557;23;20056;-81
2023/05/06 12:31:45;;;;;;;0.88;0.65;;;21.50;99.90;;;;;;6185248;23;20138;-80
2023/05/06 12:34:16;;;;;;;1.65;1.00;;;21.60;99.90;;;;;;6185329;23;20428;-80
2023/05/06 12:36:46;;;;;;;1.23;0.73;;;21.50;99.90;;;;;;6134556;23;20021;-80
2023/05/06 12:39:13;;;;;;;0.85;0.70;;;21.40;99.90;;;;;;6185128;23;20450;-80
2023/05/06 12:41:41;;;;;;;1.83;0.73;;;21.10;99.90;;;;;;6185526;23;20023;-80
2023/05/06 12:44:39;;;;;;;1.13;0.63;;;21.00;99.90;;;;;;6158837;23;20346;-80
2023/05/06 12:47:24;;;;;;;0.73;0.63;;;21.00;99.90;;;;;;6185322;23;20096;-80
2023/05/06 12:49:54;;;;;;;1.45;0.63;;;20.80;99.90;;;;;;6158820;23;20102;-80
2023/05/06 12:52:22;;;;;;;1.27;0.90;;;20.80;99.90;;;;;;6184731;23;20337;-81
2023/05/06 12:54:48;;;;;;;1.05;0.70;;;20.70;99.90;;;;;;6185166;23;20020;-80